Liubashivka, Ukraine
Current Conditions -  °F | °C
As of 3:30 PM on Tuesday 27 Jan 2015 (Local Time) from LUKK Reporting Station
Scattered Clouds Scattered Clouds  
Wind Chill: 31°   Ceiling: Unl
Heat Index: 37°   Visibility: 5mi
Dew Point: 30°   Wind: 8mph
Humidity: 75%   Direction: 100°E
Pressure: 30.03"   Gusts: NA
Location:  47.84°N, 30.26°E
Report Text: LUKK 271230Z 10007KT 8000 SCT014 03/M01 Q1017 R08/65D NOSIG
Loading
Personal Weather Stations






























Interactive Weather Map New forecast layout! Learn more

10-Day Weather Forecast

Advertisements
Track Severe Weather on mobile